Time;durP1;ratioP1;P1;durP2;ratioP2;P2;SDS_P1;SDS_P2;PMS_P1;PMS_P2;Temp;Humidity;BMP_temperature;BMP_pressure;BME280_temperature;BME280_humidity;BME280_pressure;Samples;Min_cycle;Max_cycle;Signal;HPM_P1;HPM_P2
2024/02/22 00:02:55;;;;;;;8.02;5.15;;;;;;;;;;6259241;28;20720;-78
2024/02/22 00:05:58;;;;;;;9.98;5.28;;;;;;;;;;6255144;28;20049;-80
2024/02/22 00:09:00;;;;;;;10.32;5.05;;;;;;;;;;6264009;28;20048;-78
2024/02/22 00:12:04;;;;;;;6.28;3.88;;;;;;;;;;6287062;28;20051;-78
2024/02/22 00:15:08;;;;;;;9.05;4.90;;;;;;;;;;6272514;28;20052;-77
2024/02/22 00:18:16;;;;;;;8.88;5.95;;;;;;;;;;6283034;28;20032;-79
2024/02/22 00:21:18;;;;;;;12.32;7.28;;;;;;;;;;6239019;28;20437;-78
2024/02/22 00:24:21;;;;;;;15.82;6.30;;;;;;;;;;6255397;28;20047;-78
2024/02/22 00:27:26;;;;;;;12.98;6.47;;;;;;;;;;6268788;28;20048;-79
2024/02/22 00:30:28;;;;;;;11.10;7.10;;;;;;;;;;6258003;28;20197;-79
2024/02/22 00:33:30;;;;;;;15.30;7.00;;;;;;;;;;6285544;28;20722;-79
2024/02/22 00:36:45;;;;;;;15.10;5.38;;;;;;;;;;6286399;28;20441;-79
2024/02/22 00:39:47;;;;;;;15.13;6.85;;;;;;;;;;6260332;28;20040;-78
2024/02/22 00:42:49;;;;;;;14.98;6.15;;;;;;;;;;6243832;28;20040;-78
2024/02/22 00:45:55;;;;;;;15.45;5.80;;;;;;;;;;6280959;28;20229;-78
2024/02/22 00:48:57;;;;;;;13.65;6.63;;;;;;;;;;6227101;28;20052;-78
2024/02/22 00:51:59;;;;;;;15.98;6.05;;;;;;;;;;6240978;28;20056;-77
2024/02/22 00:55:06;;;;;;;18.52;5.95;;;;;;;;;;6256975;28;20450;-78
2024/02/22 00:58:10;;;;;;;15.32;5.60;;;;;;;;;;6255682;28;20120;-78
2024/02/22 01:01:13;;;;;;;16.05;8.02;;;;;;;;;;6237848;28;20481;-78
2024/02/22 01:04:15;;;;;;;22.42;7.93;;;;;;;;;;6284267;28;20047;-78
2024/02/22 01:07:19;;;;;;;25.83;8.30;;;;;;;;;;6250702;28;20053;-79
2024/02/22 01:10:21;;;;;;;26.40;7.63;;;;;;;;;;6227563;28;20048;-78
2024/02/22 01:13:23;;;;;;;24.40;9.63;;;;;;;;;;6263773;28;20166;-78
2024/02/22 01:16:25;;;;;;;32.30;8.52;;;;;;;;;;6257232;28;20064;-78
2024/02/22 01:19:27;;;;;;;15.85;7.75;;;;;;;;;;6264176;28;20051;-79
2024/02/22 01:22:30;;;;;;;15.70;6.90;;;;;;;;;;6263993;28;20127;-79
2024/02/22 01:25:33;;;;;;;28.15;8.48;;;;;;;;;;6228575;28;20045;-79
2024/02/22 01:28:35;;;;;;;34.40;9.60;;;;;;;;;;6264514;28;20214;-79
2024/02/22 01:31:38;;;;;;;20.33;7.68;;;;;;;;;;6265642;28;20044;-79
2024/02/22 01:34:41;;;;;;;21.75;9.63;;;;;;;;;;6284824;28;20048;-79
2024/02/22 01:37:44;;;;;;;25.45;7.10;;;;;;;;;;6224830;28;20442;-79
2024/02/22 01:40:46;;;;;;;19.42;8.07;;;;;;;;;;6243727;28;20053;-80
2024/02/22 01:43:48;;;;;;;21.42;7.47;;;;;;;;;;6262561;28;20131;-80
2024/02/22 01:46:50;;;;;;;11.02;5.80;;;;;;;;;;6228799;28;20049;-80
2024/02/22 01:49:52;;;;;;;13.07;7.78;;;;;;;;;;6247709;28;20056;-79
2024/02/22 01:52:55;;;;;;;15.88;7.57;;;;;;;;;;6250504;28;20060;-79
2024/02/22 01:55:58;;;;;;;11.45;5.82;;;;;;;;;;6267827;28;20130;-79
2024/02/22 01:59:01;;;;;;;15.65;8.02;;;;;;;;;;6237858;28;20056;-80
2024/02/22 02:02:05;;;;;;;15.77;7.97;;;;;;;;;;6263687;28;20477;-79
2024/02/22 02:05:08;;;;;;;14.57;5.82;;;;;;;;;;6245519;28;20063;-80
2024/02/22 02:08:12;;;;;;;14.02;7.13;;;;;;;;;;6280623;28;20063;-80
2024/02/22 02:11:14;;;;;;;14.77;6.05;;;;;;;;;;6286154;28;20037;-79
2024/02/22 02:14:19;;;;;;;16.88;7.15;;;;;;;;;;6260782;28;20051;-80
2024/02/22 02:17:22;;;;;;;16.95;7.82;;;;;;;;;;6256866;28;20116;-78
2024/02/22 02:20:26;;;;;;;14.45;8.10;;;;;;;;;;6244591;28;20156;-78
2024/02/22 02:23:41;;;;;;;11.48;7.13;;;;;;;;;;6267720;28;20068;-79
2024/02/22 02:26:43;;;;;;;15.52;7.97;;;;;;;;;;6276473;28;20048;-80
2024/02/22 02:29:46;;;;;;;17.10;7.20;;;;;;;;;;6223949;28;20053;-80
2024/02/22 02:32:48;;;;;;;22.25;10.27;;;;;;;;;;6229964;28;20047;-80
2024/02/22 02:35:52;;;;;;;27.95;9.10;;;;;;;;;;6280384;28;20589;-79
2024/02/22 02:38:54;;;;;;;18.13;7.60;;;;;;;;;;6244788;28;20078;-79
2024/02/22 02:41:59;;;;;;;21.92;6.72;;;;;;;;;;6239631;28;20091;-78
2024/02/22 02:45:01;;;;;;;28.17;8.55;;;;;;;;;;6245432;28;20063;-80
2024/02/22 02:48:04;;;;;;;19.70;8.07;;;;;;;;;;6265166;28;20817;-79
2024/02/22 02:51:07;;;;;;;17.73;7.28;;;;;;;;;;6246616;28;20075;-80
2024/02/22 02:54:12;;;;;;;25.63;8.27;;;;;;;;;;6245188;28;20075;-79
2024/02/22 02:57:14;;;;;;;22.38;7.75;;;;;;;;;;6278651;28;20052;-80
2024/02/22 03:00:16;;;;;;;22.27;8.98;;;;;;;;;;6247922;28;20086;-79
2024/02/22 03:03:19;;;;;;;12.80;6.43;;;;;;;;;;6241216;28;20051;-79
2024/02/22 03:06:21;;;;;;;17.23;7.40;;;;;;;;;;6263055;28;20040;-80
2024/02/22 03:09:23;;;;;;;16.60;8.00;;;;;;;;;;6252168;28;20056;-80
2024/02/22 03:12:26;;;;;;;17.35;7.10;;;;;;;;;;6241623;28;20071;-78
2024/02/22 03:15:28;;;;;;;16.80;7.50;;;;;;;;;;6252154;28;20537;-79
2024/02/22 03:18:33;;;;;;;15.07;7.20;;;;;;;;;;6254393;28;20126;-80
2024/02/22 03:21:37;;;;;;;12.15;5.97;;;;;;;;;;6265295;28;20063;-79
2024/02/22 03:24:41;;;;;;;14.80;6.00;;;;;;;;;;6252074;28;20524;-80
2024/02/22 03:27:44;;;;;;;9.40;5.30;;;;;;;;;;6253259;28;20078;-79
2024/02/22 03:30:47;;;;;;;10.25;5.70;;;;;;;;;;6247988;28;20086;-80
2024/02/22 03:33:49;;;;;;;11.70;5.57;;;;;;;;;;6272216;28;20436;-80
2024/02/22 03:36:51;;;;;;;24.63;11.30;;;;;;;;;;6216722;28;20881;-80
2024/02/22 03:39:54;;;;;;;23.10;11.48;;;;;;;;;;6231250;28;20083;-80
2024/02/22 03:42:57;;;;;;;20.60;8.05;;;;;;;;;;6265518;28;20040;-80
2024/02/22 03:46:00;;;;;;;19.88;10.95;;;;;;;;;;6268740;28;20048;-80
2024/02/22 03:49:02;;;;;;;18.73;9.02;;;;;;;;;;6274756;28;20110;-80
2024/02/22 03:52:06;;;;;;;18.70;6.75;;;;;;;;;;6267077;28;20049;-81
2024/02/22 03:55:11;;;;;;;15.80;5.95;;;;;;;;;;6267085;28;20087;-80
2024/02/22 03:58:13;;;;;;;19.30;7.38;;;;;;;;;;6230662;28;20056;-80
2024/02/22 04:01:16;;;;;;;12.07;6.25;;;;;;;;;;6261444;28;20415;-80
2024/02/22 04:04:18;;;;;;;24.98;6.88;;;;;;;;;;6281640;28;20264;-79
2024/02/22 04:07:23;;;;;;;16.52;6.45;;;;;;;;;;6284967;28;20075;-80
2024/02/22 04:10:26;;;;;;;18.77;6.72;;;;;;;;;;6261527;28;20640;-80
2024/02/22 04:13:28;;;;;;;20.65;7.82;;;;;;;;;;6248181;28;20132;-79
2024/02/22 04:16:30;;;;;;;18.05;8.38;;;;;;;;;;6250635;28;20139;-80
2024/02/22 04:19:34;;;;;;;21.30;7.70;;;;;;;;;;6268748;28;20044;-80
2024/02/22 04:22:47;;;;;;;14.90;6.13;;;;;;;;;;6270037;28;20052;-80
2024/02/22 04:25:50;;;;;;;21.83;6.30;;;;;;;;;;6240776;28;20048;-80
2024/02/22 04:28:52;;;;;;;17.15;5.50;;;;;;;;;;6264585;28;20053;-80
2024/02/22 04:31:55;;;;;;;16.05;6.43;;;;;;;;;;6283166;28;20122;-81
2024/02/22 04:34:57;;;;;;;16.90;6.53;;;;;;;;;;6282863;28;20548;-81
2024/02/22 04:38:00;;;;;;;25.20;6.65;;;;;;;;;;6272142;28;20048;-80
2024/02/22 04:41:03;;;;;;;12.02;5.72;;;;;;;;;;6241870;28;20052;-81
2024/02/22 04:44:05;;;;;;;21.27;7.38;;;;;;;;;;6278765;28;20037;-80
2024/02/22 04:47:09;;;;;;;15.32;6.22;;;;;;;;;;6231632;28;20226;-82
2024/02/22 04:50:14;;;;;;;24.95;6.65;;;;;;;;;;6260837;28;20047;-81
2024/02/22 04:53:17;;;;;;;20.48;6.82;;;;;;;;;;6281620;28;20044;-80
2024/02/22 04:56:19;;;;;;;13.48;6.22;;;;;;;;;;6227436;28;20499;-80
2024/02/22 04:59:21;;;;;;;16.17;5.78;;;;;;;;;;6262111;28;20124;-80
2024/02/22 05:02:25;;;;;;;16.98;5.85;;;;;;;;;;6252358;28;20071;-80
2024/02/22 05:05:27;;;;;;;21.88;6.40;;;;;;;;;;6272944;28;20470;-81
2024/02/22 05:08:30;;;;;;;21.10;6.60;;;;;;;;;;6271276;28;20052;-81
2024/02/22 05:11:36;;;;;;;21.77;6.47;;;;;;;;;;6259324;28;20064;-81
2024/02/22 05:14:43;;;;;;;15.15;6.35;;;;;;;;;;6246335;28;20041;-80
2024/02/22 05:17:45;;;;;;;11.80;6.20;;;;;;;;;;6251758;28;20064;-78
2024/02/22 05:20:50;;;;;;;13.02;6.10;;;;;;;;;;6232535;28;20542;-77
2024/02/22 05:23:52;;;;;;;15.90;5.78;;;;;;;;;;6263454;28;20667;-79
2024/02/22 05:26:55;;;;;;;15.60;5.88;;;;;;;;;;6264440;28;20049;-80
2024/02/22 05:29:57;;;;;;;20.13;6.80;;;;;;;;;;6263381;28;20033;-77
2024/02/22 05:32:59;;;;;;;18.15;6.72;;;;;;;;;;6239269;28;20569;-78
2024/02/22 05:36:01;;;;;;;15.18;5.97;;;;;;;;;;6243433;28;20048;-77
2024/02/22 05:39:06;;;;;;;18.67;6.40;;;;;;;;;;6248398;28;20718;-77
2024/02/22 05:42:08;;;;;;;;;;;;;;;;;;6259123;28;20045;-77
2024/02/22 05:45:10;;;;;;;19.48;6.38;;;;;;;;;;6244955;28;19924;-77
2024/02/22 05:48:13;;;;;;;18.20;6.95;;;;;;;;;;6254634;28;20118;-77
2024/02/22 05:51:16;;;;;;;16.17;8.77;;;;;;;;;;6261527;28;20056;-77
2024/02/22 05:54:21;;;;;;;23.05;9.23;;;;;;;;;;6262191;28;20051;-77
2024/02/22 05:57:23;;;;;;;20.05;8.27;;;;;;;;;;6256594;28;20048;-77
2024/02/22 06:00:25;;;;;;;22.00;6.53;;;;;;;;;;6235592;28;20048;-77
2024/02/22 06:03:27;;;;;;;16.50;5.63;;;;;;;;;;6262587;28;20517;-77
2024/02/22 06:06:30;;;;;;;20.80;8.45;;;;;;;;;;6227932;28;20064;-77
2024/02/22 06:09:32;;;;;;;34.83;12.52;;;;;;;;;;6277834;28;20684;-77
2024/02/22 06:12:35;;;;;;;20.27;8.35;;;;;;;;;;6227910;28;20048;-77
2024/02/22 06:15:37;;;;;;;80.80;34.95;;;;;;;;;;6262396;28;20036;-77
2024/02/22 06:18:39;;;;;;;22.10;9.82;;;;;;;;;;6261563;28;20376;-77
2024/02/22 06:21:42;;;;;;;24.80;11.70;;;;;;;;;;6275526;28;20753;-77
2024/02/22 06:24:44;;;;;;;25.40;9.80;;;;;;;;;;6226187;28;20852;-77
2024/02/22 06:27:46;;;;;;;20.85;12.05;;;;;;;;;;6249626;28;20044;-77
2024/02/22 06:30:48;;;;;;;31.00;12.80;;;;;;;;;;6270047;28;20946;-77
2024/02/22 06:33:52;;;;;;;58.85;26.40;;;;;;;;;;6279416;28;20056;-75
2024/02/22 06:36:57;;;;;;;28.98;10.15;;;;;;;;;;6243380;28;20052;-76
2024/02/22 06:40:01;;;;;;;;;;;;;;;;;;6263510;28;20513;-76
2024/02/22 06:43:05;;;;;;;15.43;7.55;;;;;;;;;;6282530;28;20372;-77
2024/02/22 06:46:07;;;;;;;18.25;7.63;;;;;;;;;;6233097;28;20422;-76
2024/02/22 06:49:11;;;;;;;21.08;7.07;;;;;;;;;;6284157;28;20045;-77
2024/02/22 06:52:15;;;;;;;16.08;7.93;;;;;;;;;;6228928;28;20817;-78
2024/02/22 06:55:18;;;;;;;32.20;10.40;;;;;;;;;;6291886;28;20382;-78
2024/02/22 06:58:20;;;;;;;26.40;9.48;;;;;;;;;;6255742;28;20041;-76
2024/02/22 07:01:22;;;;;;;16.40;8.55;;;;;;;;;;6268123;28;20045;-77
2024/02/22 07:04:25;;;;;;;18.92;9.65;;;;;;;;;;6274922;28;20044;-77
2024/02/22 07:07:27;;;;;;;28.05;10.43;;;;;;;;;;6273588;28;20434;-76
2024/02/22 07:10:30;;;;;;;19.85;12.48;;;;;;;;;;6271726;28;20044;-76
2024/02/22 07:13:32;;;;;;;33.42;14.63;;;;;;;;;;6270741;28;20045;-77
2024/02/22 07:16:35;;;;;;;14.35;8.85;;;;;;;;;;6264732;28;20477;-76
2024/02/22 07:19:37;;;;;;;19.83;7.45;;;;;;;;;;6287383;28;20092;-76
2024/02/22 07:22:41;;;;;;;19.05;6.95;;;;;;;;;;6272264;28;20055;-77
2024/02/22 07:25:44;;;;;;;13.93;6.70;;;;;;;;;;6264380;28;20044;-78
2024/02/22 07:28:47;;;;;;;15.35;6.45;;;;;;;;;;6233749;28;20565;-76
2024/02/22 07:31:49;;;;;;;13.18;6.75;;;;;;;;;;6281689;28;20048;-76
2024/02/22 07:34:51;;;;;;;15.82;6.57;;;;;;;;;;6267385;28;20101;-76
2024/02/22 07:37:53;;;;;;;12.95;6.10;;;;;;;;;;6287362;28;20131;-75
2024/02/22 07:40:56;;;;;;;15.70;8.73;;;;;;;;;;6268264;28;20060;-75
2024/02/22 07:43:59;;;;;;;9.93;5.53;;;;;;;;;;6270475;28;20055;-76
2024/02/22 07:47:03;;;;;;;12.15;6.22;;;;;;;;;;6260841;28;20055;-76
2024/02/22 07:50:10;;;;;;;11.18;6.18;;;;;;;;;;6288344;28;20040;-75
2024/02/22 07:53:13;;;;;;;12.15;7.20;;;;;;;;;;6269562;28;20044;-76
2024/02/22 07:56:16;;;;;;;11.00;6.72;;;;;;;;;;6267643;28;20063;-76
2024/02/22 07:59:19;;;;;;;13.98;7.40;;;;;;;;;;6280197;28;20046;-76
2024/02/22 08:02:22;;;;;;;14.15;6.88;;;;;;;;;;6247403;28;20151;-75
2024/02/22 08:05:24;;;;;;;12.30;6.25;;;;;;;;;;6243294;28;20049;-75
2024/02/22 08:08:27;;;;;;;11.25;6.38;;;;;;;;;;6278635;28;20060;-76
2024/02/22 08:11:29;;;;;;;15.88;7.05;;;;;;;;;;6248724;28;20108;-76
2024/02/22 08:14:32;;;;;;;15.88;8.07;;;;;;;;;;6261712;28;20048;-75
2024/02/22 08:17:37;;;;;;;16.00;8.38;;;;;;;;;;6249997;28;20060;-76
2024/02/22 08:20:40;;;;;;;40.42;16.48;;;;;;;;;;6278735;28;20044;-76
2024/02/22 08:23:42;;;;;;;19.02;8.73;;;;;;;;;;6247238;28;20419;-76
2024/02/22 08:26:45;;;;;;;16.45;7.50;;;;;;;;;;6263299;28;20055;-75
2024/02/22 08:29:50;;;;;;;14.30;6.53;;;;;;;;;;6263881;28;20067;-75
2024/02/22 08:32:53;;;;;;;18.27;7.47;;;;;;;;;;6240221;28;20073;-75
2024/02/22 08:35:56;;;;;;;15.40;7.43;;;;;;;;;;6262223;28;20044;-76
2024/02/22 08:39:00;;;;;;;19.20;9.23;;;;;;;;;;6262837;28;20059;-76
2024/02/22 08:42:03;;;;;;;16.08;8.80;;;;;;;;;;6254072;28;20048;-77
2024/02/22 08:45:06;;;;;;;20.65;9.73;;;;;;;;;;6250263;28;20049;-77
2024/02/22 08:48:08;;;;;;;15.13;9.05;;;;;;;;;;6227146;28;20048;-77
2024/02/22 08:51:11;;;;;;;18.15;9.15;;;;;;;;;;6258798;28;20772;-75
2024/02/22 08:54:13;;;;;;;18.33;8.88;;;;;;;;;;6231463;28;20037;-77
2024/02/22 08:57:15;;;;;;;16.42;8.05;;;;;;;;;;6245022;28;20049;-78
2024/02/22 09:00:19;;;;;;;13.77;6.47;;;;;;;;;;6242099;28;20119;-77
2024/02/22 09:03:21;;;;;;;19.95;9.57;;;;;;;;;;6246449;28;20056;-78
2024/02/22 09:06:24;;;;;;;15.60;8.68;;;;;;;;;;6257962;28;20029;-78
2024/02/22 09:09:28;;;;;;;17.08;11.77;;;;;;;;;;6265652;28;20753;-77
2024/02/22 09:12:30;;;;;;;21.40;9.57;;;;;;;;;;6246633;28;20052;-77
2024/02/22 09:15:34;;;;;;;19.65;7.97;;;;;;;;;;6245399;28;20041;-78
2024/02/22 09:18:36;;;;;;;19.70;10.80;;;;;;;;;;6255780;28;20048;-76
2024/02/22 09:21:39;;;;;;;22.73;12.15;;;;;;;;;;6258597;28;20146;-77
2024/02/22 09:24:42;;;;;;;18.95;9.88;;;;;;;;;;6284848;28;20045;-76
2024/02/22 09:27:45;;;;;;;17.92;9.10;;;;;;;;;;6291559;28;20056;-77
2024/02/22 09:30:48;;;;;;;20.67;10.85;;;;;;;;;;6267025;28;20040;-77
2024/02/22 09:33:50;;;;;;;26.33;11.52;;;;;;;;;;6260767;28;20051;-78
2024/02/22 09:36:53;;;;;;;22.88;10.75;;;;;;;;;;6273525;28;20040;-76
2024/02/22 09:39:55;;;;;;;21.77;10.40;;;;;;;;;;6261097;28;20131;-76
2024/02/22 09:42:57;;;;;;;21.25;10.63;;;;;;;;;;6282797;28;20051;-77
2024/02/22 09:45:59;;;;;;;20.33;10.82;;;;;;;;;;6264604;28;20465;-76
2024/02/22 09:49:03;;;;;;;19.52;9.85;;;;;;;;;;6261613;28;20060;-76
2024/02/22 09:52:11;;;;;;;11.63;7.32;;;;;;;;;;6263757;28;20040;-76
2024/02/22 09:55:13;;;;;;;23.08;11.98;;;;;;;;;;6229317;28;20041;-76
2024/02/22 09:58:20;;;;;;;22.75;12.82;;;;;;;;;;6248739;28;20136;-77
2024/02/22 10:01:24;;;;;;;20.30;10.18;;;;;;;;;;6268707;28;20337;-77
2024/02/22 10:04:27;;;;;;;18.60;11.02;;;;;;;;;;6254084;28;20528;-78
2024/02/22 10:07:32;;;;;;;22.45;11.85;;;;;;;;;;6244737;28;20626;-76
2024/02/22 10:10:34;;;;;;;26.58;11.13;;;;;;;;;;6258540;28;20060;-77
2024/02/22 10:13:37;;;;;;;21.10;10.52;;;;;;;;;;6263866;28;20127;-77
2024/02/22 10:16:45;;;;;;;21.65;11.43;;;;;;;;;;6240747;28;20063;-77
2024/02/22 10:19:59;;;;;;;19.98;12.15;;;;;;;;;;6273815;28;20566;-76
2024/02/22 10:23:08;;;;;;;21.27;10.73;;;;;;;;;;6257674;28;20040;-76
2024/02/22 10:26:13;;;;;;;16.67;7.45;;;;;;;;;;6233290;28;20057;-76
2024/02/22 10:29:15;;;;;;;22.60;11.95;;;;;;;;;;6264782;28;20055;-76
2024/02/22 10:32:19;;;;;;;20.77;11.95;;;;;;;;;;6243211;28;20078;-73
2024/02/22 10:35:23;;;;;;;27.17;14.35;;;;;;;;;;6262300;28;20049;-76
2024/02/22 10:38:30;;;;;;;17.67;9.73;;;;;;;;;;6261326;28;20623;-76
2024/02/22 10:41:35;;;;;;;15.55;8.27;;;;;;;;;;6272176;28;20185;-77
2024/02/22 10:44:49;;;;;;;16.40;10.35;;;;;;;;;;6266987;28;20132;-76
2024/02/22 10:47:51;;;;;;;18.92;9.75;;;;;;;;;;6268089;28;20513;-76
2024/02/22 10:50:55;;;;;;;20.13;10.57;;;;;;;;;;6266496;28;20045;-76
2024/02/22 10:53:57;;;;;;;18.45;9.30;;;;;;;;;;6227822;28;20049;-75
2024/02/22 10:57:01;;;;;;;19.63;11.23;;;;;;;;;;6244017;28;20117;-77
2024/02/22 11:00:04;;;;;;;22.60;11.52;;;;;;;;;;6263789;28;20851;-77
2024/02/22 11:03:07;;;;;;;21.67;11.15;;;;;;;;;;6257862;28;20056;-75
2024/02/22 11:06:13;;;;;;;18.67;11.10;;;;;;;;;;6252817;28;20040;-76
2024/02/22 11:09:21;;;;;;;21.70;11.27;;;;;;;;;;6258559;28;20388;-77
2024/02/22 11:12:30;;;;;;;20.52;10.70;;;;;;;;;;6227994;28;20053;-76
2024/02/22 11:15:35;;;;;;;26.23;12.15;;;;;;;;;;6246823;28;20044;-76
2024/02/22 11:18:38;;;;;;;25.23;12.68;;;;;;;;;;6242612;28;20586;-76
2024/02/22 11:21:40;;;;;;;24.98;12.30;;;;;;;;;;6254801;28;20049;-76
2024/02/22 11:24:44;;;;;;;21.83;11.25;;;;;;;;;;6280314;28;20049;-78
2024/02/22 11:28:19;;;;;;;24.00;11.15;;;;;;;;;;6244740;28;20053;-75
2024/02/22 11:31:21;;;;;;;24.38;12.93;;;;;;;;;;6265593;28;20859;-75
2024/02/22 11:34:28;;;;;;;19.33;10.82;;;;;;;;;;6258263;28;20070;-75
2024/02/22 11:37:32;;;;;;;18.20;10.43;;;;;;;;;;6249381;28;20047;-75
2024/02/22 11:40:34;;;;;;;21.65;11.15;;;;;;;;;;6238555;28;20053;-75
2024/02/22 11:43:38;;;;;;;16.45;9.30;;;;;;;;;;6246973;28;20099;-76
2024/02/22 11:46:43;;;;;;;18.77;10.85;;;;;;;;;;6285800;28;20056;-75
2024/02/22 11:49:46;;;;;;;22.63;11.52;;;;;;;;;;6232869;28;20432;-77
2024/02/22 11:52:49;;;;;;;17.40;11.27;;;;;;;;;;6267168;28;20059;-77
2024/02/22 11:55:52;;;;;;;20.20;11.15;;;;;;;;;;6247871;28;20075;-76
2024/02/22 11:58:55;;;;;;;20.38;11.45;;;;;;;;;;6267406;28;20105;-77
2024/02/22 12:01:58;;;;;;;21.20;11.30;;;;;;;;;;6264332;28;20052;-76
2024/02/22 12:05:00;;;;;;;20.30;11.32;;;;;;;;;;6248302;28;20051;-76
2024/02/22 12:08:03;;;;;;;19.30;8.90;;;;;;;;;;6271416;28;20140;-76
2024/02/22 12:11:06;;;;;;;19.08;10.77;;;;;;;;;;6248962;28;20075;-77
2024/02/22 12:14:12;;;;;;;21.67;11.25;;;;;;;;;;6258981;28;20048;-76
2024/02/22 12:17:15;;;;;;;20.25;9.88;;;;;;;;;;6253010;28;20552;-77
2024/02/22 12:20:23;;;;;;;19.45;11.55;;;;;;;;;;6291080;28;20044;-76
2024/02/22 12:23:26;;;;;;;18.38;8.85;;;;;;;;;;6273939;28;20041;-77
2024/02/22 12:26:28;;;;;;;17.65;10.00;;;;;;;;;;6289863;28;20044;-77
2024/02/22 12:29:35;;;;;;;19.80;10.43;;;;;;;;;;6257015;28;20050;-77
2024/02/22 12:32:49;;;;;;;20.17;11.07;;;;;;;;;;6257044;28;20127;-76
2024/02/22 12:35:52;;;;;;;17.92;10.30;;;;;;;;;;6263406;28;20049;-77
2024/02/22 12:38:54;;;;;;;18.17;11.02;;;;;;;;;;6275198;28;20126;-76
2024/02/22 12:42:00;;;;;;;15.07;10.13;;;;;;;;;;6264945;28;20094;-76
2024/02/22 12:45:05;;;;;;;21.17;12.80;;;;;;;;;;6267974;28;20040;-76
2024/02/22 12:48:08;;;;;;;22.50;12.65;;;;;;;;;;6266657;28;20051;-77
2024/02/22 12:51:13;;;;;;;17.38;10.27;;;;;;;;;;6279474;28;20033;-77
2024/02/22 12:54:22;;;;;;;17.30;10.77;;;;;;;;;;6234101;28;20080;-78
2024/02/22 12:57:25;;;;;;;20.80;11.95;;;;;;;;;;6215409;28;20818;-77
2024/02/22 13:00:27;;;;;;;17.98;10.30;;;;;;;;;;6268931;28;20050;-77
2024/02/22 13:03:30;;;;;;;22.52;11.02;;;;;;;;;;6282866;28;20048;-77
2024/02/22 13:06:35;;;;;;;21.23;11.65;;;;;;;;;;6269094;28;20105;-77
2024/02/22 13:09:40;;;;;;;19.10;11.45;;;;;;;;;;6284536;28;20573;-78
2024/02/22 13:12:43;;;;;;;21.65;12.25;;;;;;;;;;6281130;28;20044;-78
2024/02/22 13:15:47;;;;;;;18.67;11.18;;;;;;;;;;6284881;28;20530;-78
2024/02/22 13:18:50;;;;;;;19.27;10.95;;;;;;;;;;6225996;28;20060;-79
2024/02/22 13:21:53;;;;;;;20.17;10.32;;;;;;;;;;6285591;28;20044;-78
2024/02/22 13:24:55;;;;;;;18.60;9.55;;;;;;;;;;6285027;28;20040;-77
2024/02/22 13:27:57;;;;;;;17.40;11.10;;;;;;;;;;6251391;28;20048;-79
2024/02/22 13:30:59;;;;;;;18.90;10.70;;;;;;;;;;6261979;28;20048;-78
2024/02/22 13:34:01;;;;;;;16.83;8.70;;;;;;;;;;6272036;28;20119;-80
2024/02/22 13:37:03;;;;;;;18.27;11.15;;;;;;;;;;6242522;28;20183;-79
2024/02/22 13:40:07;;;;;;;16.80;9.32;;;;;;;;;;6289580;28;20056;-78
2024/02/22 13:43:16;;;;;;;13.43;8.27;;;;;;;;;;6264785;28;20075;-79
2024/02/22 13:46:20;;;;;;;13.38;8.45;;;;;;;;;;6261540;28;20048;-79
2024/02/22 13:49:23;;;;;;;12.85;8.55;;;;;;;;;;6261106;28;20045;-79
2024/02/22 13:52:25;;;;;;;11.98;8.05;;;;;;;;;;6249946;28;20048;-78
2024/02/22 13:55:27;;;;;;;13.68;7.90;;;;;;;;;;6270090;28;20044;-79
2024/02/22 13:58:37;;;;;;;14.57;9.23;;;;;;;;;;6282058;28;20093;-81
2024/02/22 14:01:40;;;;;;;11.93;7.65;;;;;;;;;;6241054;28;20052;-79
2024/02/22 14:04:42;;;;;;;12.30;7.82;;;;;;;;;;6245153;28;20037;-78
2024/02/22 14:07:51;;;;;;;13.55;7.95;;;;;;;;;;6275294;28;20045;-78
2024/02/22 14:10:54;;;;;;;13.65;8.52;;;;;;;;;;6263885;28;20052;-79
2024/02/22 14:13:56;;;;;;;11.27;8.38;;;;;;;;;;6247435;28;20091;-79
2024/02/22 14:17:00;;;;;;;10.50;6.07;;;;;;;;;;6257896;28;20067;-79
2024/02/22 14:20:05;;;;;;;10.57;7.43;;;;;;;;;;6274574;28;20040;-76
2024/02/22 14:23:08;;;;;;;10.65;7.22;;;;;;;;;;6277948;28;20055;-77
2024/02/22 14:26:15;;;;;;;13.95;6.97;;;;;;;;;;6281066;28;20121;-78
2024/02/22 14:29:23;;;;;;;9.50;5.88;;;;;;;;;;6265747;28;20610;-78
2024/02/22 14:32:26;;;;;;;13.05;6.45;;;;;;;;;;6282460;28;20051;-78
2024/02/22 14:35:29;;;;;;;10.23;6.03;;;;;;;;;;6249095;28;20055;-76
2024/02/22 14:38:33;;;;;;;18.95;6.85;;;;;;;;;;6231636;28;20518;-77
2024/02/22 14:41:35;;;;;;;9.30;5.95;;;;;;;;;;6284372;28;20222;-77
2024/02/22 14:44:38;;;;;;;8.70;5.15;;;;;;;;;;6261477;28;20059;-78
2024/02/22 14:47:41;;;;;;;11.13;6.30;;;;;;;;;;6273655;28;20045;-77
2024/02/22 14:50:44;;;;;;;9.85;6.00;;;;;;;;;;6254557;28;20052;-77
2024/02/22 14:53:46;;;;;;;9.82;4.57;;;;;;;;;;6285591;28;20697;-77
2024/02/22 14:56:50;;;;;;;7.30;4.57;;;;;;;;;;6263796;28;20440;-77
2024/02/22 14:59:53;;;;;;;9.60;5.97;;;;;;;;;;6287165;28;20521;-75
2024/02/22 15:02:56;;;;;;;9.77;5.65;;;;;;;;;;6285383;28;20094;-77
2024/02/22 15:05:58;;;;;;;9.05;5.82;;;;;;;;;;6279220;28;20043;-79
2024/02/22 15:09:15;;;;;;;11.15;7.30;;;;;;;;;;6255044;28;20059;-78
2024/02/22 15:12:18;;;;;;;10.52;7.55;;;;;;;;;;6283912;28;20044;-77
2024/02/22 15:15:20;;;;;;;11.20;7.18;;;;;;;;;;6285123;28;20510;-78
2024/02/22 15:18:25;;;;;;;10.88;7.65;;;;;;;;;;6269433;28;20748;-78
2024/02/22 15:21:27;;;;;;;12.88;8.43;;;;;;;;;;6254341;28;20055;-77
2024/02/22 15:24:30;;;;;;;13.35;8.82;;;;;;;;;;6249039;28;20052;-76
2024/02/22 15:27:36;;;;;;;12.75;8.82;;;;;;;;;;6277474;28;20032;-77
2024/02/22 15:30:41;;;;;;;14.20;9.00;;;;;;;;;;6293560;28;20036;-76
2024/02/22 15:33:43;;;;;;;16.17;7.95;;;;;;;;;;6258568;28;20526;-77
2024/02/22 15:36:54;;;;;;;15.32;10.43;;;;;;;;;;6275818;28;20114;-77
2024/02/22 15:39:56;;;;;;;11.93;8.45;;;;;;;;;;6281893;28;20048;-77
2024/02/22 15:42:59;;;;;;;13.43;8.85;;;;;;;;;;6289556;28;20051;-77
2024/02/22 15:46:02;;;;;;;15.80;9.82;;;;;;;;;;6268816;28;20044;-78
2024/02/22 15:49:13;;;;;;;16.10;9.70;;;;;;;;;;6271823;28;20637;-77
2024/02/22 15:52:17;;;;;;;16.88;9.65;;;;;;;;;;6251847;28;20510;-78
2024/02/22 15:55:20;;;;;;;14.30;9.35;;;;;;;;;;6251035;28;20048;-78
2024/02/22 15:58:24;;;;;;;14.93;10.13;;;;;;;;;;6278140;28;20105;-77
2024/02/22 16:01:27;;;;;;;16.95;9.25;;;;;;;;;;6280756;28;20581;-75
2024/02/22 16:04:31;;;;;;;19.83;9.60;;;;;;;;;;6261227;28;20048;-76
2024/02/22 16:07:34;;;;;;;18.63;10.52;;;;;;;;;;6279218;28;20140;-76
2024/02/22 16:10:39;;;;;;;16.15;9.20;;;;;;;;;;6247312;28;20048;-77
2024/02/22 16:13:41;;;;;;;15.18;10.02;;;;;;;;;;6272945;28;20059;-76
2024/02/22 16:16:45;;;;;;;18.92;9.70;;;;;;;;;;6288693;28;20746;-78
2024/02/22 16:19:47;;;;;;;18.15;9.10;;;;;;;;;;6260152;28;20051;-79
2024/02/22 16:22:50;;;;;;;17.25;9.68;;;;;;;;;;6250554;28;20103;-79
2024/02/22 16:25:52;;;;;;;15.63;7.65;;;;;;;;;;6284709;28;20518;-76
2024/02/22 16:28:54;;;;;;;20.35;7.78;;;;;;;;;;6253833;28;20052;-76
2024/02/22 16:31:57;;;;;;;10.00;6.85;;;;;;;;;;6267940;28;20557;-76
2024/02/22 16:34:59;;;;;;;14.15;6.43;;;;;;;;;;6262296;28;20048;-76
2024/02/22 16:38:01;;;;;;;12.38;7.25;;;;;;;;;;6286542;28;20136;-75
2024/02/22 16:41:03;;;;;;;10.80;6.45;;;;;;;;;;6251710;28;20040;-76
2024/02/22 16:44:07;;;;;;;13.75;6.00;;;;;;;;;;6264836;28;20083;-76
2024/02/22 16:47:11;;;;;;;9.85;4.70;;;;;;;;;;6281748;28;20479;-75
2024/02/22 16:50:16;;;;;;;13.50;6.10;;;;;;;;;;6256383;28;20075;-75
2024/02/22 16:53:19;;;;;;;11.98;5.57;;;;;;;;;;6249590;28;20440;-75
2024/02/22 16:56:22;;;;;;;9.00;5.85;;;;;;;;;;6252953;28;20564;-76
2024/02/22 16:59:26;;;;;;;10.15;5.57;;;;;;;;;;6233823;28;20051;-75
2024/02/22 17:02:29;;;;;;;10.55;6.95;;;;;;;;;;6249893;28;20113;-75
2024/02/22 17:05:32;;;;;;;13.23;6.45;;;;;;;;;;6278374;28;20037;-75
2024/02/22 17:08:35;;;;;;;10.25;6.43;;;;;;;;;;6265758;28;20067;-76
2024/02/22 17:11:37;;;;;;;12.07;6.85;;;;;;;;;;6259961;28;20866;-75
2024/02/22 17:14:40;;;;;;;9.82;5.00;;;;;;;;;;6284390;28;20075;-75
2024/02/22 17:17:46;;;;;;;9.20;6.25;;;;;;;;;;6277845;28;20049;-76
2024/02/22 17:20:48;;;;;;;9.30;5.10;;;;;;;;;;6247970;28;20529;-76
2024/02/22 17:23:51;;;;;;;13.02;7.28;;;;;;;;;;6245127;28;20045;-77
2024/02/22 17:26:53;;;;;;;12.13;7.03;;;;;;;;;;6260549;28;20045;-76
2024/02/22 17:29:55;;;;;;;9.63;4.82;;;;;;;;;;6259946;28;20593;-75
2024/02/22 17:32:57;;;;;;;6.50;4.00;;;;;;;;;;6244035;28;20079;-75
2024/02/22 17:36:01;;;;;;;6.35;4.15;;;;;;;;;;6261537;28;20722;-75
2024/02/22 17:39:03;;;;;;;7.75;4.13;;;;;;;;;;6279281;28;20131;-75
2024/02/22 17:42:05;;;;;;;6.97;3.42;;;;;;;;;;6255758;28;20803;-77
2024/02/22 17:45:08;;;;;;;6.53;3.55;;;;;;;;;;6262828;28;20048;-75
2024/02/22 17:48:11;;;;;;;8.07;3.50;;;;;;;;;;6241135;28;20548;-75
2024/02/22 17:51:15;;;;;;;7.40;4.93;;;;;;;;;;6256837;28;20060;-75
2024/02/22 17:54:17;;;;;;;6.50;3.65;;;;;;;;;;6258103;28;20536;-75
2024/02/22 17:57:19;;;;;;;6.45;4.40;;;;;;;;;;6262826;28;20052;-75
2024/02/22 18:00:25;;;;;;;5.60;3.55;;;;;;;;;;6240248;28;20129;-75
2024/02/22 18:03:28;;;;;;;7.28;4.45;;;;;;;;;;6273224;28;20127;-76